Nossa Senhora Aparecida, Brazil
Current Conditions -  °F | °C
As of 1:00 PM on Sunday 23 Nov 2014 (Local Time) from SBAR Reporting Station
Scattered Clouds Scattered Clouds  
Wind Chill: 82°   Ceiling: Unl
Heat Index: 86°   Visibility: 6mi
Dew Point: 70°   Wind: 17mph
Humidity: 66%   Direction: 110°ESE
Pressure: 29.91"   Gusts: NA
Location:  10.44°S, 37.49°W
Report Text: SBAR 231600Z 11015KT 9999 SCT017 28/21 Q1013
Loading
Personal Weather Stations






























Interactive Weather Map New forecast layout! Learn more

10-Day Weather Forecast

Advertisements
Track Severe Weather on mobile